createdAt,value
2019-01-11T00:01:31.272Z,87.94
2019-01-11T00:04:03.230Z,88.18
2019-01-11T00:06:37.259Z,88.74
2019-01-11T00:09:10.482Z,89.45
2019-01-11T00:11:43.488Z,88.93
2019-01-11T00:14:14.756Z,88.73
2019-01-11T00:16:46.419Z,88.67
2019-01-11T00:19:17.661Z,88.94
2019-01-11T00:21:49.317Z,88.95
2019-01-11T00:24:21.491Z,88.76
2019-01-11T00:26:54.424Z,89.12
2019-01-11T00:29:27.472Z,89.25
2019-01-11T00:31:58.730Z,89.49
2019-01-11T00:34:31.951Z,89.68
2019-01-11T00:37:07.404Z,89.75
2019-01-11T00:39:39.515Z,89.71
2019-01-11T00:42:12.524Z,89.93
2019-01-11T00:44:43.771Z,89.75
2019-01-11T00:47:17.767Z,89.49
2019-01-11T00:49:50.918Z,89.71
2019-01-11T00:52:24.658Z,89.98
2019-01-11T00:54:57.583Z,90.31
2019-01-11T00:57:31.630Z,90.29
2019-01-11T01:00:02.899Z,90.26
2019-01-11T01:02:35.695Z,90.39
2019-01-11T01:05:12.203Z,90.40
2019-01-11T01:07:43.796Z,89.71
2019-01-11T01:10:18.552Z,89.85
2019-01-11T01:12:50.807Z,89.67
2019-01-11T01:15:22.130Z,89.86
2019-01-11T01:17:55.951Z,89.77
2019-01-11T01:20:28.747Z,89.99
2019-01-11T01:23:04.312Z,90.23
2019-01-11T01:25:36.726Z,90.46
2019-01-11T01:28:10.378Z,90.45
2019-01-11T01:30:43.867Z,90.41
2019-01-11T01:33:16.790Z,90.32
2019-01-11T01:35:48.838Z,90.25
2019-01-11T01:38:21.053Z,90.54
2019-01-11T01:40:52.751Z,90.38
2019-01-11T01:43:24.877Z,90.24
2019-01-11T01:45:58.741Z,90.07
2019-01-11T01:48:31.919Z,90.11
2019-01-11T01:51:05.903Z,90.00
2019-01-11T01:53:39.939Z,90.15
2019-01-11T01:56:12.814Z,90.29
2019-01-11T01:58:46.443Z,90.28
2019-01-11T02:01:19.800Z,89.92
2019-01-11T02:03:53.859Z,90.28
2019-01-11T02:06:26.938Z,90.52
2019-01-11T02:08:59.131Z,90.36
2019-01-11T02:11:30.864Z,90.40
2019-01-11T02:14:05.093Z,90.27
2019-01-11T02:16:36.333Z,90.66
2019-01-11T02:19:10.044Z,89.90
2019-01-11T02:21:41.281Z,89.68
2019-01-11T02:24:13.950Z,89.74
2019-01-11T02:26:46.895Z,89.84
2019-01-11T02:29:18.162Z,89.95
2019-01-11T02:31:51.044Z,90.03
2019-01-11T02:34:23.112Z,89.75
2019-01-11T02:36:58.861Z,89.57
2019-01-11T02:39:31.238Z,89.58
2019-01-11T02:42:02.824Z,89.75
2019-01-11T02:44:35.075Z,89.87
2019-01-11T02:47:09.158Z,90.08
2019-01-11T02:49:40.556Z,90.20
2019-01-11T02:52:13.197Z,90.47
2019-01-11T02:54:46.625Z,90.28
2019-01-11T02:57:20.096Z,90.47
2019-01-11T02:59:53.076Z,90.54
2019-01-11T03:02:28.907Z,89.88
2019-01-11T03:05:01.187Z,89.97
2019-01-11T03:07:34.110Z,90.64
2019-01-11T03:10:07.620Z,90.07
2019-01-11T03:12:39.076Z,89.98
2019-01-11T03:15:15.094Z,90.33
2019-01-11T03:17:47.174Z,90.16
2019-01-11T03:20:20.257Z,90.48
2019-01-11T03:22:53.254Z,90.18
2019-01-11T03:25:24.805Z,90.68
2019-01-11T03:27:58.199Z,90.85
2019-01-11T03:30:32.245Z,90.89
2019-01-11T03:33:04.394Z,90.56
2019-01-11T03:35:38.972Z,90.70
2019-01-11T03:38:13.459Z,90.17
2019-01-11T03:40:45.658Z,89.83
2019-01-11T03:43:18.272Z,90.30
2019-01-11T03:45:52.417Z,90.30
2019-01-11T03:48:26.295Z,90.28
2019-01-11T03:50:59.434Z,89.88
2019-01-11T03:53:33.247Z,89.51
2019-01-11T03:56:06.412Z,89.36
2019-01-11T03:58:40.516Z,89.14
2019-01-11T04:01:13.384Z,89.21
2019-01-11T04:03:47.421Z,89.16
2019-01-11T04:06:21.657Z,89.74
2019-01-11T04:08:54.365Z,90.11
2019-01-11T04:11:30.059Z,90.34
2019-01-11T04:14:02.494Z,90.60
2019-01-11T04:16:35.400Z,90.91
2019-01-11T04:19:13.391Z,90.40
2019-01-11T04:22:10.674Z,90.33
2019-01-11T04:25:02.177Z,90.02
2019-01-11T04:27:35.552Z,89.57
2019-01-11T04:30:13.594Z,89.81
2019-01-11T04:32:47.536Z,90.27
2019-01-11T04:35:20.491Z,89.95
2019-01-11T04:37:54.629Z,89.68
2019-01-11T04:40:34.153Z,89.92
2019-01-11T04:43:01.952Z,89.95
2019-01-11T04:45:35.712Z,89.92
2019-01-11T04:48:09.515Z,89.79
2019-01-11T04:50:40.900Z,89.35
2019-01-11T04:53:13.715Z,89.60
2019-01-11T04:55:47.654Z,89.30
2019-01-11T04:58:19.720Z,89.20
2019-01-11T05:00:51.557Z,88.66
2019-01-11T05:03:24.784Z,88.42
2019-01-11T05:05:58.659Z,88.14
2019-01-11T05:08:31.908Z,88.82
2019-01-11T05:11:07.360Z,88.67
2019-01-11T05:13:41.474Z,88.90
2019-01-11T05:16:15.684Z,88.98
2019-01-11T05:18:47.680Z,88.85
2019-01-11T05:21:20.775Z,89.14
2019-01-11T05:23:53.774Z,89.31
2019-01-11T05:26:27.436Z,89.04
2019-01-11T05:28:58.697Z,89.04
2019-01-11T05:31:29.927Z,89.09
2019-01-11T05:34:05.438Z,89.30
2019-01-11T05:36:36.737Z,89.55
2019-01-11T05:39:10.777Z,89.66
2019-01-11T05:41:43.873Z,89.71
2019-01-11T05:44:17.660Z,89.96
2019-01-11T05:46:49.525Z,89.75
2019-01-11T05:49:22.922Z,89.87
2019-01-11T05:51:56.819Z,89.86
2019-01-11T05:54:29.008Z,89.96
2019-01-11T05:57:01.769Z,89.77
2019-01-11T05:59:35.114Z,89.12
2019-01-11T06:02:08.706Z,89.56
2019-01-11T06:04:44.528Z,89.42
2019-01-11T06:07:31.617Z,89.56
2019-01-11T06:10:04.731Z,89.62
2019-01-11T06:12:38.023Z,89.33
2019-01-11T06:15:12.942Z,89.33
2019-01-11T06:17:46.067Z,89.21
2019-01-11T06:20:19.168Z,89.42
2019-01-11T06:22:51.923Z,89.44
2019-01-11T06:25:25.120Z,89.84
2019-01-11T06:27:56.949Z,89.77
2019-01-11T06:30:29.048Z,89.81
2019-01-11T06:33:01.936Z,90.02
2019-01-11T06:35:36.108Z,90.14
2019-01-11T06:38:09.212Z,90.16
2019-01-11T06:40:40.856Z,90.35
2019-01-11T06:43:13.978Z,90.10
2019-01-11T06:45:47.959Z,90.18
2019-01-11T06:48:38.151Z,90.24
2019-01-11T06:51:10.153Z,90.37
2019-01-11T06:53:41.422Z,90.35
2019-01-11T06:56:15.183Z,90.39
2019-01-11T06:58:47.062Z,90.15
2019-01-11T07:01:19.423Z,90.25
2019-01-11T07:03:51.272Z,90.19
2019-01-11T07:06:24.163Z,90.01
2019-01-11T07:08:55.401Z,89.57
2019-01-11T07:11:27.980Z,89.97
2019-01-11T07:14:01.177Z,90.29
2019-01-11T07:16:35.340Z,90.49
2019-01-11T07:19:06.594Z,90.32
2019-01-11T07:21:39.222Z,90.18
2019-01-11T07:24:13.340Z,90.01
2019-01-11T07:26:44.593Z,89.99
2019-01-11T07:29:17.371Z,89.74
2019-01-11T07:31:53.740Z,89.86
2019-01-11T07:34:27.435Z,89.76
2019-01-11T07:37:00.730Z,89.73
2019-01-11T07:39:34.391Z,89.66
2019-01-11T07:42:05.818Z,89.42
2019-01-11T07:44:38.757Z,89.16
2019-01-11T07:47:10.564Z,88.89
2019-01-11T07:49:41.822Z,88.89
2019-01-11T07:52:16.125Z,89.02
2019-01-11T07:54:47.433Z,89.38
2019-01-11T07:57:19.404Z,89.02
2019-01-11T07:59:53.412Z,88.89
2019-01-11T08:02:25.561Z,88.95
2019-01-11T08:04:57.936Z,89.02
2019-01-11T08:07:31.559Z,89.09
2019-01-11T08:10:05.863Z,88.54
2019-01-11T08:12:38.831Z,88.52
2019-01-11T08:15:12.600Z,88.00
2019-01-11T08:17:44.651Z,88.32
2019-01-11T08:20:15.952Z,87.71
2019-01-11T08:22:49.480Z,87.53
2019-01-11T08:25:24.180Z,87.78
2019-01-11T08:27:56.573Z,89.20
2019-01-11T08:30:29.776Z,89.71
2019-01-11T08:33:03.713Z,90.17
2019-01-11T08:35:37.938Z,90.26
2019-01-11T08:38:10.697Z,90.69
2019-01-11T08:40:41.956Z,90.90
2019-01-11T08:43:14.614Z,90.85
2019-01-11T08:45:47.693Z,90.85
2019-01-11T08:48:19.663Z,91.15
2019-01-11T08:50:53.070Z,91.57
2019-01-11T08:53:27.036Z,91.96
2019-01-11T08:56:01.148Z,91.16
2019-01-11T08:58:32.394Z,91.21
2019-01-11T09:01:05.635Z,91.01
2019-01-11T09:03:37.182Z,91.38
2019-01-11T09:06:08.760Z,91.44
2019-01-11T09:08:41.667Z,91.03
2019-01-11T09:11:13.608Z,91.18
2019-01-11T09:13:47.895Z,91.34
2019-01-11T09:16:23.456Z,91.59
2019-01-11T09:18:58.170Z,92.19
2019-01-11T09:21:30.735Z,92.55
2019-01-11T09:24:06.270Z,92.61
2019-01-11T09:26:37.748Z,92.12
2019-01-11T09:29:11.978Z,92.28
2019-01-11T09:31:44.951Z,92.45
2019-01-11T09:34:18.664Z,93.07
2019-01-11T09:36:51.864Z,92.79
2019-01-11T09:39:27.416Z,92.86
2019-01-11T09:41:58.785Z,92.68
2019-01-11T09:44:30.980Z,92.93
2019-01-11T09:47:02.990Z,92.96
2019-01-11T09:49:36.947Z,93.12
2019-01-11T09:52:10.883Z,92.37
2019-01-11T09:54:46.076Z,91.71
2019-01-11T09:57:17.995Z,91.42
2019-01-11T09:59:50.982Z,90.59
2019-01-11T10:02:38.762Z,90.38
2019-01-11T10:05:11.793Z,90.59
2019-01-11T10:07:45.118Z,89.99
2019-01-11T10:10:18.008Z,89.40
2019-01-11T10:12:51.112Z,89.50
2019-01-11T10:15:22.711Z,88.70
2019-01-11T10:17:53.982Z,87.86
2019-01-11T10:20:27.833Z,88.03
2019-01-11T10:23:00.874Z,88.06
2019-01-11T10:25:33.119Z,87.46
2019-01-11T10:28:07.518Z,85.69
2019-01-11T10:30:39.974Z,81.66
2019-01-11T10:33:13.138Z,80.55
2019-01-11T10:35:44.780Z,80.16
2019-01-11T10:38:16.951Z,80.61
2019-01-11T10:40:51.048Z,81.61
2019-01-11T10:43:24.952Z,79.77
2019-01-11T10:45:59.346Z,77.53
2019-01-11T10:48:32.053Z,76.41
2019-01-11T10:51:05.131Z,74.88
2019-01-11T10:53:38.932Z,75.63
2019-01-11T10:56:11.992Z,76.17
2019-01-11T10:58:45.103Z,77.00
2019-01-11T11:01:16.978Z,79.07
2019-01-11T11:03:51.071Z,78.91
2019-01-11T11:06:23.998Z,79.65
2019-01-11T11:08:57.910Z,79.79
2019-01-11T11:11:30.969Z,79.53
2019-01-11T11:14:05.672Z,79.19
2019-01-11T11:16:39.099Z,78.35
2019-01-11T11:19:12.519Z,77.90
2019-01-11T11:21:45.182Z,77.48
2019-01-11T11:24:17.121Z,77.23
2019-01-11T11:26:51.138Z,77.66
2019-01-11T11:29:25.073Z,77.20
2019-01-11T11:31:58.138Z,77.32
2019-01-11T11:34:31.651Z,76.42
2019-01-11T11:37:03.988Z,77.26
2019-01-11T11:39:36.085Z,75.96
2019-01-11T11:42:07.356Z,71.65
2019-01-11T11:44:41.304Z,72.07
2019-01-11T11:47:14.220Z,73.26
2019-01-11T11:49:46.298Z,72.05
2019-01-11T11:52:18.249Z,71.75
2019-01-11T11:54:51.385Z,70.75
2019-01-11T11:57:25.273Z,71.05
2019-01-11T11:59:56.694Z,71.92
2019-01-11T12:02:30.354Z,72.04
2019-01-11T12:05:03.185Z,73.14
2019-01-11T12:07:38.030Z,75.11
2019-01-11T12:10:13.388Z,74.01
2019-01-11T12:12:44.613Z,73.53
2019-01-11T12:15:18.434Z,72.86
2019-01-11T12:17:52.095Z,72.76
2019-01-11T12:20:26.527Z,72.39
2019-01-11T12:22:59.610Z,73.73
2019-01-11T12:25:34.733Z,74.24
2019-01-11T12:28:06.334Z,74.08
2019-01-11T12:30:41.971Z,73.97
2019-01-11T12:33:14.322Z,73.65
2019-01-11T12:35:46.497Z,74.62
2019-01-11T12:38:18.369Z,74.04
2019-01-11T12:40:51.476Z,74.91
2019-01-11T12:43:25.242Z,74.87
2019-01-11T12:45:57.960Z,75.03
2019-01-11T12:48:30.540Z,75.34
2019-01-11T12:51:05.228Z,74.86
2019-01-11T12:53:37.511Z,74.49
2019-01-11T12:56:11.986Z,75.08
2019-01-11T12:58:45.561Z,76.22
2019-01-11T13:01:16.800Z,74.32
2019-01-11T13:03:49.447Z,74.59
2019-01-11T13:06:22.541Z,73.62
2019-01-11T13:08:55.635Z,74.14
2019-01-11T13:11:31.142Z,73.71
2019-01-11T13:14:03.585Z,73.31
2019-01-11T13:16:37.720Z,73.02
2019-01-11T13:19:10.734Z,73.55
2019-01-11T13:21:42.066Z,74.09
2019-01-11T13:24:15.831Z,72.83
2019-01-11T13:26:48.662Z,73.31
2019-01-11T13:29:19.940Z,74.07
2019-01-11T13:31:53.639Z,74.65
2019-01-11T13:34:27.643Z,74.35
2019-01-11T13:37:00.629Z,74.38
2019-01-11T13:39:36.251Z,74.61
2019-01-11T13:42:08.684Z,75.84
2019-01-11T13:44:41.649Z,75.22
2019-01-11T13:47:13.027Z,74.81
2019-01-11T13:49:44.622Z,75.72
2019-01-11T13:52:17.741Z,75.16
2019-01-11T13:54:51.913Z,74.65
2019-01-11T13:57:24.865Z,74.93
2019-01-11T13:59:58.750Z,75.46
2019-01-11T14:02:32.045Z,74.16
2019-01-11T14:05:06.227Z,75.39
2019-01-11T14:07:38.829Z,73.85
2019-01-11T14:10:13.869Z,74.48
2019-01-11T14:12:46.727Z,74.50
2019-01-11T14:15:19.917Z,75.08
2019-01-11T14:17:53.912Z,74.54
2019-01-11T14:20:26.755Z,74.91
2019-01-11T14:23:00.872Z,75.89
2019-01-11T14:25:36.537Z,74.96
2019-01-11T14:28:08.790Z,76.63
2019-01-11T14:30:41.602Z,75.87
2019-01-11T14:33:15.866Z,75.97
2019-01-11T14:35:48.011Z,76.18
2019-01-11T14:38:19.245Z,75.89
2019-01-11T14:40:50.951Z,76.48
2019-01-11T14:43:24.865Z,75.97
2019-01-11T14:45:56.240Z,76.53
2019-01-11T14:48:28.998Z,77.72
2019-01-11T14:51:02.913Z,76.87
2019-01-11T14:53:36.989Z,77.95
2019-01-11T14:56:08.242Z,77.79
2019-01-11T14:58:41.036Z,77.62
2019-01-11T15:01:15.064Z,76.85
2019-01-11T15:03:46.302Z,77.40
2019-01-11T15:06:18.972Z,75.59
2019-01-11T15:08:52.972Z,76.61
2019-01-11T15:11:26.991Z,76.52
2019-01-11T15:13:59.940Z,75.50
2019-01-11T15:16:31.220Z,76.24
2019-01-11T15:19:04.117Z,75.72
2019-01-11T15:21:35.347Z,76.83
2019-01-11T15:24:08.129Z,76.93
2019-01-11T15:26:41.680Z,75.79
2019-01-11T15:29:15.720Z,76.41
2019-01-11T15:31:48.244Z,76.30
2019-01-11T15:34:20.095Z,75.42
2019-01-11T15:36:53.141Z,75.13
2019-01-11T15:39:24.418Z,75.26
2019-01-11T15:41:58.282Z,76.10
2019-01-11T15:44:33.578Z,76.44
2019-01-11T15:47:05.272Z,76.49
2019-01-11T15:49:39.221Z,75.52
2019-01-11T15:52:12.112Z,75.67
2019-01-11T15:54:43.429Z,76.27
2019-01-11T15:57:18.346Z,76.01
2019-01-11T16:00:02.411Z,75.62
2019-01-11T16:02:34.463Z,75.62
2019-01-11T16:05:07.470Z,74.54
2019-01-11T16:07:41.417Z,74.60
2019-01-11T16:10:18.503Z,74.53
2019-01-11T16:13:28.159Z,75.02
2019-01-11T16:16:35.572Z,75.20
2019-01-11T16:19:07.478Z,75.64
2019-01-11T16:21:41.401Z,77.35
2019-01-11T16:24:14.421Z,75.11
2019-01-11T16:26:49.985Z,75.11
2019-01-11T16:29:21.416Z,75.60
2019-01-11T16:31:52.669Z,75.51
2019-01-11T16:34:26.562Z,75.35
2019-01-11T16:36:59.425Z,75.62
2019-01-11T16:39:30.710Z,75.74
2019-01-11T16:42:03.503Z,76.18
2019-01-11T16:44:37.395Z,77.79
2019-01-11T16:47:09.617Z,79.83
2019-01-11T16:49:41.849Z,81.44
2019-01-11T16:52:15.454Z,82.97
2019-01-11T16:54:46.445Z,84.79
2019-01-11T16:57:20.602Z,87.31
2019-01-11T16:59:53.463Z,89.05
2019-01-11T17:02:36.457Z,91.25
2019-01-11T17:05:02.112Z,92.07
2019-01-11T17:07:35.589Z,93.92
2019-01-11T17:10:10.876Z,95.23
2019-01-11T17:12:42.247Z,96.13
2019-01-11T17:15:15.884Z,96.45
2019-01-11T17:17:50.524Z,96.94
2019-01-11T17:20:24.671Z,97.12
2019-01-11T17:22:57.803Z,98.08
2019-01-11T17:25:31.621Z,98.46
2019-01-11T17:28:03.705Z,99.23
2019-01-11T17:30:35.971Z,99.49
2019-01-11T17:33:09.524Z,99.91
2019-01-11T17:35:41.935Z,100.00
2019-01-11T17:38:13.646Z,100.00
2019-01-11T17:40:45.825Z,100.00
2019-01-11T17:43:17.954Z,100.00
2019-01-11T17:45:51.772Z,100.00
2019-01-11T17:48:24.890Z,100.00
2019-01-11T17:50:58.857Z,100.00
2019-01-11T17:53:32.741Z,100.00
2019-01-11T17:56:05.955Z,100.00
2019-01-11T17:58:37.921Z,100.00
2019-01-11T18:01:10.821Z,100.00
2019-01-11T18:03:42.217Z,100.00
2019-01-11T18:06:14.949Z,100.00
2019-01-11T18:08:48.017Z,100.00
2019-01-11T18:11:19.682Z,100.00
2019-01-11T18:13:52.891Z,100.00
2019-01-11T18:16:26.952Z,100.00
2019-01-11T18:19:00.912Z,100.00
2019-01-11T18:21:36.471Z,100.00
2019-01-11T18:24:08.994Z,100.00
2019-01-11T18:26:40.402Z,100.00
2019-01-11T18:29:13.025Z,100.00
2019-01-11T18:31:45.136Z,100.00
2019-01-11T18:34:17.522Z,100.00
2019-01-11T18:36:52.654Z,100.00
2019-01-11T18:39:24.592Z,100.00
2019-01-11T18:41:57.824Z,100.00
2019-01-11T18:44:31.153Z,100.00
2019-01-11T18:47:02.857Z,100.00
2019-01-11T18:49:35.854Z,100.00
2019-01-11T18:52:11.098Z,100.00
2019-01-11T18:54:42.500Z,100.00
2019-01-11T18:57:16.775Z,100.00
2019-01-11T18:59:50.407Z,100.00
2019-01-11T19:02:24.611Z,100.00
2019-01-11T19:04:58.677Z,100.00
2019-01-11T19:07:32.470Z,100.00
2019-01-11T19:10:07.219Z,100.00
2019-01-11T19:12:39.567Z,100.00
2019-01-11T19:15:21.241Z,100.00
2019-01-11T19:17:53.153Z,100.00
2019-01-11T19:20:28.709Z,100.00
2019-01-11T19:23:01.567Z,100.00
2019-01-11T19:25:34.781Z,100.00
2019-01-11T19:28:07.465Z,100.00
2019-01-11T19:30:41.352Z,100.00
2019-01-11T19:33:15.726Z,100.00
2019-01-11T19:35:48.287Z,100.00
2019-01-11T19:38:19.871Z,100.00
2019-01-11T19:40:52.728Z,100.00
2019-01-11T19:43:26.776Z,100.00
2019-01-11T19:46:00.406Z,100.00
2019-01-11T19:48:33.612Z,100.00
2019-01-11T19:51:07.814Z,100.00
2019-01-11T19:53:44.275Z,100.00
2019-01-11T19:56:17.914Z,100.00
2019-01-11T19:58:51.644Z,100.00
2019-01-11T20:01:34.221Z,100.00
2019-01-11T20:04:10.849Z,100.00
2019-01-11T20:06:42.456Z,100.00
2019-01-11T20:09:16.187Z,100.00
2019-01-11T20:11:48.816Z,100.00
2019-01-11T20:14:21.899Z,100.00
2019-01-11T20:16:53.932Z,100.00
2019-01-11T20:19:27.404Z,100.00
2019-01-11T20:22:01.421Z,100.00
2019-01-11T20:24:35.479Z,100.00
2019-01-11T20:27:08.522Z,100.00
2019-01-11T20:29:42.232Z,100.00
2019-01-11T20:32:13.600Z,100.00
2019-01-11T20:34:47.529Z,100.00
2019-01-11T20:37:28.977Z,100.00
2019-01-11T20:40:00.479Z,100.00
2019-01-11T20:42:31.918Z,100.00
2019-01-11T20:45:05.244Z,100.00
2019-01-11T20:47:38.639Z,100.00
2019-01-11T20:50:14.490Z,100.00
2019-01-11T20:52:50.131Z,100.00
2019-01-11T20:55:21.596Z,100.00
2019-01-11T20:57:55.867Z,100.00
2019-01-11T21:00:31.572Z,100.00
2019-01-11T21:03:07.373Z,100.00
2019-01-11T21:05:39.730Z,100.00
2019-01-11T21:08:12.039Z,100.00
2019-01-11T21:10:45.775Z,100.00
2019-01-11T21:13:17.629Z,100.00
2019-01-11T21:15:51.762Z,100.00
2019-01-11T21:18:25.481Z,100.00
2019-01-11T21:20:59.603Z,100.00
2019-01-11T21:23:32.650Z,100.00
2019-01-11T21:26:06.715Z,100.00
2019-01-11T21:28:42.337Z,100.00
2019-01-11T21:31:14.748Z,100.00
2019-01-11T21:33:50.294Z,100.00
2019-01-11T21:36:22.716Z,100.00
2019-01-11T21:38:55.673Z,100.00
2019-01-11T21:41:29.697Z,100.00
2019-01-11T21:44:02.786Z,100.00
2019-01-11T21:46:34.047Z,100.00
2019-01-11T21:49:06.886Z,100.00
2019-01-11T21:51:42.441Z,100.00
2019-01-11T21:54:14.871Z,100.00
2019-01-11T21:56:48.725Z,100.00
2019-01-11T21:59:21.860Z,100.00
2019-01-11T22:01:53.125Z,100.00
2019-01-11T22:04:25.906Z,100.00
2019-01-11T22:07:01.447Z,100.00
2019-01-11T22:09:32.957Z,100.00
2019-01-11T22:12:06.888Z,100.00
2019-01-11T22:14:40.801Z,100.00
2019-01-11T22:17:16.119Z,100.00
2019-01-11T22:19:48.925Z,100.00
2019-01-11T22:22:21.989Z,100.00
2019-01-11T22:24:55.845Z,100.00
2019-01-11T22:27:28.884Z,100.00
2019-01-11T22:30:00.246Z,100.00
2019-01-11T22:32:32.939Z,100.00
2019-01-11T22:35:07.133Z,100.00
2019-01-11T22:37:40.927Z,100.00
2019-01-11T22:40:17.099Z,100.00
2019-01-11T22:42:55.518Z,100.00
2019-01-11T22:45:29.107Z,100.00
2019-01-11T22:48:01.986Z,100.00
2019-01-11T22:50:36.641Z,100.00
2019-01-11T22:53:09.142Z,100.00
2019-01-11T22:55:43.085Z,100.00
2019-01-11T22:58:16.094Z,100.00
2019-01-11T23:01:25.543Z,100.00
2019-01-11T23:03:59.112Z,100.00
2019-01-11T23:06:56.593Z,100.00
2019-01-11T23:09:33.987Z,100.00
2019-01-11T23:12:31.472Z,100.00
2019-01-11T23:15:08.486Z,100.00
2019-01-11T23:18:10.491Z,100.00
2019-01-11T23:20:42.377Z,100.00
2019-01-11T23:23:16.317Z,100.00
2019-01-11T23:25:49.324Z,100.00
2019-01-11T23:28:20.718Z,100.00
2019-01-11T23:30:52.401Z,100.00
2019-01-11T23:33:24.160Z,100.00
2019-01-11T23:35:55.461Z,100.00
2019-01-11T23:38:29.534Z,100.00
2019-01-11T23:41:02.297Z,100.00
2019-01-11T23:43:33.626Z,100.00
2019-01-11T23:46:07.541Z,100.00
2019-01-11T23:48:41.358Z,100.00
2019-01-11T23:51:12.686Z,100.00
2019-01-11T23:53:45.503Z,100.00
2019-01-11T23:56:19.533Z,100.00
2019-01-11T23:58:52.471Z,100.00
